createdAt,value
2019-03-11T00:00:54.430Z,19.02
2019-03-11T00:03:24.149Z,17.40
2019-03-11T00:05:53.678Z,17.73
2019-03-11T00:08:23.314Z,16.73
2019-03-11T00:10:52.943Z,20.20
2019-03-11T00:13:22.777Z,17.35
2019-03-11T00:15:52.400Z,16.17
2019-03-11T00:18:22.130Z,16.05
2019-03-11T00:20:51.861Z,15.13
2019-03-11T00:23:21.595Z,21.07
2019-03-11T00:25:51.080Z,16.62
2019-03-11T00:28:20.739Z,16.50
2019-03-11T00:30:50.469Z,13.68
2019-03-11T00:33:20.100Z,14.35
2019-03-11T00:35:49.743Z,15.85
2019-03-11T00:38:19.355Z,17.90
2019-03-11T00:40:48.984Z,16.17
2019-03-11T00:43:18.617Z,18.48
2019-03-11T00:45:48.496Z,15.10
2019-03-11T00:48:18.065Z,17.55
2019-03-11T00:50:47.519Z,21.12
2019-03-11T00:53:17.025Z,13.43
2019-03-11T00:55:46.657Z,17.13
2019-03-11T00:58:16.387Z,16.77
2019-03-11T01:00:46.014Z,18.87
2019-03-11T01:03:15.628Z,30.27
2019-03-11T01:05:45.116Z,29.43
2019-03-11T01:08:14.722Z,25.50
2019-03-11T01:10:44.284Z,27.50
2019-03-11T01:13:14.147Z,27.20
2019-03-11T01:15:43.777Z,27.13
2019-03-11T01:18:13.509Z,24.55
2019-03-11T01:20:44.258Z,27.37
2019-03-11T01:23:13.984Z,23.63
2019-03-11T01:25:43.614Z,27.85
2019-03-11T01:28:13.244Z,21.45
2019-03-11T01:30:42.872Z,24.20
2019-03-11T01:33:12.611Z,26.42
2019-03-11T01:35:42.342Z,24.67
2019-03-11T01:38:12.062Z,25.72
2019-03-11T01:40:42.715Z,31.55
2019-03-11T01:43:12.253Z,29.00
2019-03-11T01:45:41.871Z,28.70
2019-03-11T01:48:11.748Z,31.62
2019-03-11T01:50:42.960Z,31.70
2019-03-11T01:53:12.608Z,33.20
2019-03-11T01:55:42.229Z,32.00
2019-03-11T01:58:13.592Z,33.08
2019-03-11T02:00:44.217Z,28.25
2019-03-11T02:03:13.863Z,20.17
2019-03-11T02:05:43.497Z,18.57
2019-03-11T02:08:13.089Z,23.65
2019-03-11T02:10:42.678Z,16.15
2019-03-11T02:13:12.372Z,16.65
2019-03-11T02:15:43.542Z,14.90
2019-03-11T02:18:13.135Z,11.12
2019-03-11T02:20:44.245Z,8.78
2019-03-11T02:23:14.059Z,7.83
2019-03-11T02:25:43.695Z,10.75
2019-03-11T02:28:16.076Z,7.25
2019-03-11T02:30:47.141Z,9.95
2019-03-11T02:33:17.992Z,10.58
2019-03-11T02:35:49.147Z,8.10
2019-03-11T02:38:20.113Z,11.75
2019-03-11T02:40:49.747Z,7.67
2019-03-11T02:43:19.467Z,10.43
2019-03-11T02:45:50.834Z,9.95
2019-03-11T02:48:20.470Z,9.30
2019-03-11T02:50:49.993Z,11.03
2019-03-11T02:53:19.522Z,11.35
2019-03-11T02:55:50.965Z,15.20
2019-03-11T02:58:23.277Z,11.43
2019-03-11T03:00:54.429Z,12.10
2019-03-11T03:03:40.998Z,11.70
2019-03-11T03:06:12.206Z,11.80
2019-03-11T03:08:41.824Z,7.80
2019-03-11T03:11:12.378Z,11.13
2019-03-11T03:13:42.004Z,9.33
2019-03-11T03:16:12.661Z,11.55
2019-03-11T03:18:42.331Z,8.43
2019-03-11T03:21:11.912Z,9.65
2019-03-11T03:23:42.053Z,10.23
2019-03-11T03:26:11.779Z,9.53
2019-03-11T03:28:41.816Z,7.47
2019-03-11T03:31:11.573Z,13.05
2019-03-11T03:33:42.626Z,10.10
2019-03-11T03:36:12.249Z,11.33
2019-03-11T03:38:41.796Z,11.60
2019-03-11T03:41:11.393Z,10.87
2019-03-11T03:43:41.225Z,6.90
2019-03-11T03:46:18.668Z,7.50
2019-03-11T03:48:42.506Z,13.72
2019-03-11T03:51:12.251Z,8.75
2019-03-11T03:53:41.914Z,7.87
2019-03-11T03:56:11.620Z,6.17
2019-03-11T03:58:41.175Z,10.88
2019-03-11T04:01:11.174Z,10.63
2019-03-11T04:03:40.902Z,7.87
2019-03-11T04:06:10.541Z,13.88
2019-03-11T04:08:40.257Z,9.33
2019-03-11T04:11:09.896Z,11.97
2019-03-11T04:13:39.519Z,9.37
2019-03-11T04:16:09.142Z,8.60
2019-03-11T04:18:53.922Z,11.03
2019-03-11T04:21:23.846Z,12.82
2019-03-11T04:23:53.586Z,14.35
2019-03-11T04:26:26.490Z,9.88
2019-03-11T04:28:56.533Z,11.53
2019-03-11T04:31:26.045Z,17.65
2019-03-11T04:33:55.568Z,20.57
2019-03-11T04:36:25.289Z,23.18
2019-03-11T04:38:54.924Z,39.13
2019-03-11T04:41:24.446Z,29.23
2019-03-11T04:43:54.896Z,8.85
2019-03-11T04:46:25.555Z,13.30
2019-03-11T04:48:55.188Z,12.73
2019-03-11T04:51:24.689Z,14.13
2019-03-11T04:53:54.224Z,8.63
2019-03-11T04:56:23.860Z,13.17
2019-03-11T04:58:53.474Z,14.75
2019-03-11T05:01:23.248Z,14.03
2019-03-11T05:03:52.835Z,33.55
2019-03-11T05:06:22.370Z,33.83
2019-03-11T05:08:51.994Z,32.70
2019-03-11T05:11:21.623Z,19.57
2019-03-11T05:13:51.036Z,19.00
2019-03-11T05:16:20.664Z,15.53
2019-03-11T05:18:50.300Z,13.93
2019-03-11T05:21:20.024Z,11.90
2019-03-11T05:23:49.615Z,20.35
2019-03-11T05:26:20.933Z,21.93
2019-03-11T05:28:50.653Z,35.80
2019-03-11T05:31:20.283Z,18.77
2019-03-11T05:33:50.007Z,11.75
2019-03-11T05:36:19.627Z,14.70
2019-03-11T05:38:49.240Z,13.00
2019-03-11T05:41:18.895Z,10.03
2019-03-11T05:43:48.458Z,14.20
2019-03-11T05:46:18.363Z,12.33
2019-03-11T05:48:48.091Z,8.30
2019-03-11T05:51:17.707Z,15.08
2019-03-11T05:53:47.571Z,12.00
2019-03-11T05:56:17.198Z,13.08
2019-03-11T05:58:46.902Z,16.45
2019-03-11T06:01:17.760Z,14.25
2019-03-11T06:03:47.177Z,19.80
2019-03-11T06:06:16.808Z,16.50
2019-03-11T06:08:46.540Z,14.63
2019-03-11T06:11:16.425Z,14.80
2019-03-11T06:13:51.464Z,17.98
2019-03-11T06:16:24.531Z,23.85
2019-03-11T06:18:56.002Z,29.07
2019-03-11T06:21:34.422Z,22.07
2019-03-11T06:24:04.055Z,18.62
2019-03-11T06:26:34.732Z,14.53
2019-03-11T06:29:06.570Z,12.90
2019-03-11T06:31:36.202Z,10.93
2019-03-11T06:34:07.069Z,13.53
2019-03-11T06:36:36.688Z,14.20
2019-03-11T06:39:07.653Z,18.67
2019-03-11T06:41:38.313Z,15.38
2019-03-11T06:44:09.555Z,13.68
2019-03-11T06:46:39.184Z,15.63
2019-03-11T06:49:10.558Z,10.30
2019-03-11T06:51:45.685Z,11.08
2019-03-11T06:54:17.279Z,12.13
2019-03-11T06:56:48.542Z,12.50
2019-03-11T06:59:18.162Z,8.85
2019-03-11T07:01:47.997Z,5.75
2019-03-11T07:04:17.565Z,6.43
2019-03-11T07:06:50.134Z,8.83
2019-03-11T07:09:21.025Z,11.15
2019-03-11T07:11:52.973Z,9.75
2019-03-11T07:14:24.163Z,9.90
2019-03-11T07:16:53.840Z,8.53
2019-03-11T07:19:23.314Z,17.07
2019-03-11T07:21:53.855Z,9.90
2019-03-11T07:24:23.560Z,17.82
2019-03-11T07:26:52.970Z,16.20
2019-03-11T07:29:23.620Z,10.72
2019-03-11T07:31:53.761Z,12.23
2019-03-11T07:34:23.406Z,13.70
2019-03-11T07:36:55.064Z,15.95
2019-03-11T07:39:24.900Z,11.65
2019-03-11T07:41:55.543Z,17.35
2019-03-11T07:46:54.198Z,16.80
2019-03-11T07:49:24.040Z,16.65
2019-03-11T07:51:55.085Z,17.55
2019-03-11T07:54:35.285Z,20.02
2019-03-11T07:56:57.610Z,12.15
2019-03-11T07:59:28.768Z,13.20
2019-03-11T08:02:00.455Z,15.25
2019-03-11T08:04:31.102Z,16.37
2019-03-11T08:07:03.290Z,16.62
2019-03-11T08:09:38.143Z,13.00
2019-03-11T08:12:05.295Z,11.15
2019-03-11T08:14:36.148Z,11.10
2019-03-11T08:17:05.677Z,10.70
2019-03-11T08:19:35.513Z,15.98
2019-03-11T08:22:05.253Z,12.78
2019-03-11T08:24:35.182Z,13.57
2019-03-11T08:27:05.215Z,13.13
2019-03-11T08:29:34.842Z,12.75
2019-03-11T08:32:06.113Z,11.78
2019-03-11T08:34:35.840Z,24.77
2019-03-11T08:37:05.333Z,14.33
2019-03-11T08:39:35.102Z,14.97
2019-03-11T08:42:04.826Z,10.43
2019-03-11T08:44:35.371Z,13.10
2019-03-11T08:47:04.897Z,32.80
2019-03-11T08:49:36.564Z,18.43
2019-03-11T08:52:06.202Z,15.28
2019-03-11T08:54:35.841Z,16.90
2019-03-11T08:57:05.336Z,17.80
2019-03-11T08:59:36.612Z,19.25
2019-03-11T09:02:08.802Z,21.33
2019-03-11T09:04:38.555Z,12.10
2019-03-11T09:07:08.158Z,17.00
2019-03-11T09:09:38.085Z,13.73
2019-03-11T09:12:07.622Z,9.30
2019-03-11T09:14:37.773Z,12.55
2019-03-11T09:17:07.284Z,12.93
2019-03-11T09:19:38.133Z,19.35
2019-03-11T09:22:09.641Z,15.40
2019-03-11T09:24:40.397Z,17.90
2019-03-11T09:27:11.213Z,22.50
2019-03-11T09:29:41.046Z,18.70
2019-03-11T09:32:11.037Z,15.63
2019-03-11T09:34:42.368Z,11.88
2019-03-11T09:37:13.823Z,15.08
2019-03-11T09:39:43.646Z,11.93
2019-03-11T09:42:13.383Z,19.45
2019-03-11T09:44:43.311Z,13.53
2019-03-11T09:47:13.258Z,22.32
2019-03-11T09:49:42.792Z,20.52
2019-03-11T09:52:13.324Z,15.63
2019-03-11T09:57:13.708Z,14.25
2019-03-11T09:59:43.339Z,19.00
2019-03-11T10:02:12.966Z,21.40
2019-03-11T10:04:42.705Z,16.57
2019-03-11T10:07:13.563Z,20.75
2019-03-11T10:09:43.175Z,23.87
2019-03-11T10:12:14.445Z,17.17
2019-03-11T10:14:47.131Z,18.00
2019-03-11T10:17:16.899Z,24.85
2019-03-11T10:19:46.391Z,13.47
2019-03-11T10:22:17.041Z,15.57
2019-03-11T10:27:17.830Z,14.98
2019-03-11T10:29:47.558Z,16.27
2019-03-11T10:32:18.206Z,20.33
2019-03-11T10:37:16.858Z,16.02
2019-03-11T10:39:48.277Z,15.90
2019-03-11T10:42:18.050Z,19.55
2019-03-11T10:44:47.580Z,16.97
2019-03-11T10:47:17.419Z,17.33
2019-03-11T10:49:46.958Z,15.20
2019-03-11T10:52:16.565Z,15.63
2019-03-11T10:54:46.201Z,17.90
2019-03-11T10:57:16.954Z,12.23
2019-03-11T10:59:46.987Z,25.65
2019-03-11T11:02:17.736Z,20.30
2019-03-11T11:04:48.290Z,18.98
2019-03-11T11:09:46.744Z,17.45
2019-03-11T11:12:17.905Z,19.27
2019-03-11T11:14:47.616Z,17.32
2019-03-11T11:17:18.273Z,13.20
2019-03-11T11:19:47.987Z,24.15
2019-03-11T11:22:18.756Z,16.03
2019-03-11T11:24:49.090Z,19.67
2019-03-11T11:27:18.822Z,21.27
2019-03-11T11:29:49.179Z,24.70
2019-03-11T11:32:18.893Z,20.50
2019-03-11T11:34:48.520Z,20.35
2019-03-11T11:37:18.258Z,19.33
2019-03-11T11:39:48.088Z,20.13
2019-03-11T11:42:20.278Z,20.80
2019-03-11T11:44:50.307Z,20.02
2019-03-11T11:47:22.493Z,15.40
2019-03-11T11:49:53.004Z,13.95
2019-03-11T11:54:51.454Z,17.60
2019-03-11T11:57:22.377Z,15.08
2019-03-11T11:59:54.222Z,14.43
2019-03-11T12:02:23.336Z,18.80
2019-03-11T12:04:52.876Z,13.27
2019-03-11T12:07:23.631Z,19.52
2019-03-11T12:09:53.748Z,17.45
2019-03-11T12:12:25.222Z,13.05
2019-03-11T12:14:54.858Z,7.75
2019-03-11T12:17:25.403Z,12.90
2019-03-11T12:19:55.710Z,9.63
2019-03-11T12:22:25.381Z,12.05
2019-03-11T12:24:56.182Z,11.13
2019-03-11T12:27:26.188Z,8.35
2019-03-11T12:29:57.020Z,8.65
2019-03-11T12:32:28.307Z,10.93
2019-03-11T12:35:00.431Z,9.03
2019-03-11T12:37:30.184Z,7.97
2019-03-11T12:39:59.927Z,10.00
2019-03-11T12:42:31.163Z,9.60
2019-03-11T12:45:01.336Z,10.03
2019-03-11T12:47:31.783Z,6.87
2019-03-11T12:50:01.390Z,7.28
2019-03-11T12:52:32.255Z,8.75
2019-03-11T12:55:03.405Z,7.05
2019-03-11T12:57:34.343Z,9.33
2019-03-11T13:00:06.358Z,8.30
2019-03-11T13:02:36.091Z,9.05
2019-03-11T13:05:08.610Z,8.63
2019-03-11T13:07:39.330Z,10.10
2019-03-11T13:10:20.419Z,8.83
2019-03-11T13:12:50.448Z,10.50
2019-03-11T13:15:21.408Z,8.35
2019-03-11T13:17:51.342Z,9.05
2019-03-11T13:20:36.314Z,7.03
2019-03-11T13:23:07.064Z,8.35
2019-03-11T13:25:37.201Z,6.33
2019-03-11T13:28:06.833Z,7.83
2019-03-11T13:30:36.557Z,6.30
2019-03-11T13:33:07.422Z,8.75
2019-03-11T13:35:37.300Z,11.45
2019-03-11T13:38:08.294Z,6.45
2019-03-11T13:40:38.350Z,7.20
2019-03-11T13:43:07.988Z,8.97
2019-03-11T13:45:39.261Z,5.77
2019-03-11T13:48:08.870Z,7.90
2019-03-11T13:50:38.706Z,5.95
2019-03-11T13:53:10.164Z,7.20
2019-03-11T13:55:39.898Z,3.80
2019-03-11T13:58:09.727Z,4.83
2019-03-11T14:00:40.383Z,5.35
2019-03-11T14:05:40.562Z,5.65
2019-03-11T14:08:10.197Z,12.45
2019-03-11T14:10:40.064Z,4.87
2019-03-11T14:13:09.854Z,4.67
2019-03-11T14:15:39.683Z,8.85
2019-03-11T14:18:12.265Z,8.53
2019-03-11T14:20:42.501Z,5.62
2019-03-11T14:23:11.839Z,6.35
2019-03-11T14:25:41.767Z,5.97
2019-03-11T14:28:13.809Z,5.22
2019-03-11T14:30:43.272Z,6.78
2019-03-11T14:33:13.930Z,7.08
2019-03-11T14:35:44.789Z,7.28
2019-03-11T14:38:15.516Z,9.33
2019-03-11T14:40:46.233Z,6.00
2019-03-11T14:43:16.848Z,4.87
2019-03-11T14:48:16.614Z,4.47
2019-03-11T14:50:47.473Z,6.25
2019-03-11T14:53:17.206Z,4.83
2019-03-11T14:55:46.828Z,8.47
2019-03-11T14:58:16.905Z,3.30
2019-03-11T15:00:48.334Z,7.62
2019-03-11T15:03:18.568Z,4.58
2019-03-11T15:05:49.128Z,4.20
2019-03-11T15:08:19.208Z,5.28
2019-03-11T15:10:48.983Z,7.35
2019-03-11T15:13:18.712Z,3.37
2019-03-11T15:15:48.439Z,5.75
2019-03-11T15:18:18.068Z,5.92
2019-03-11T15:20:48.112Z,13.43
2019-03-11T15:23:20.624Z,4.35
2019-03-11T15:25:52.795Z,4.62
2019-03-11T15:28:22.633Z,6.37
2019-03-11T15:30:52.346Z,4.80
2019-03-11T15:33:25.400Z,8.80
2019-03-11T15:35:55.079Z,6.50
2019-03-11T15:38:26.760Z,7.03
2019-03-11T15:40:56.503Z,11.22
2019-03-11T15:43:31.538Z,3.00
2019-03-11T15:46:01.409Z,7.10
2019-03-11T15:48:33.555Z,9.93
2019-03-11T15:51:05.019Z,4.60
2019-03-11T15:53:35.569Z,12.15
2019-03-11T15:58:34.104Z,5.12
2019-03-11T16:01:06.334Z,5.08
2019-03-11T16:03:38.705Z,5.30
2019-03-11T16:06:10.009Z,3.40
2019-03-11T16:08:42.240Z,4.35
2019-03-11T16:11:11.867Z,6.53
2019-03-11T16:13:41.490Z,3.97
2019-03-11T16:16:11.323Z,8.17
2019-03-11T16:18:40.945Z,4.78
2019-03-11T16:21:10.683Z,3.97
2019-03-11T16:23:42.415Z,3.67
2019-03-11T16:26:12.205Z,4.12
2019-03-11T16:28:47.991Z,4.75
2019-03-11T16:31:16.063Z,4.28
2019-03-11T16:33:47.721Z,5.95
2019-03-11T16:36:17.358Z,6.20
2019-03-11T16:38:47.262Z,3.70
2019-03-11T16:41:17.035Z,3.30
2019-03-11T16:43:46.747Z,4.35
2019-03-11T16:46:16.466Z,4.40
2019-03-11T16:48:46.524Z,6.45
2019-03-11T16:51:20.642Z,4.10
2019-03-11T16:53:50.371Z,7.75
2019-03-11T16:56:20.917Z,5.12
2019-03-11T16:58:50.657Z,5.20
2019-03-11T17:01:20.502Z,8.35
2019-03-11T17:03:51.436Z,4.40
2019-03-11T17:06:21.171Z,6.28
2019-03-11T17:08:51.203Z,6.78
2019-03-11T17:11:20.727Z,11.38
2019-03-11T17:13:52.670Z,4.42
2019-03-11T17:16:23.463Z,6.12
2019-03-11T17:18:53.213Z,8.93
2019-03-11T17:21:23.576Z,7.20
2019-03-11T17:23:54.925Z,6.40
2019-03-11T17:26:24.745Z,8.55
2019-03-11T17:28:54.365Z,12.45
2019-03-11T17:31:23.996Z,7.80
2019-03-11T17:33:53.625Z,8.50
2019-03-11T17:36:23.355Z,5.27
2019-03-11T17:38:54.858Z,9.38
2019-03-11T17:41:37.237Z,9.60
2019-03-11T17:44:07.072Z,9.80
2019-03-11T17:46:37.828Z,14.83
2019-03-11T17:49:07.808Z,17.62
2019-03-11T17:51:38.324Z,11.60
2019-03-11T17:56:41.161Z,10.80
2019-03-11T17:59:10.799Z,12.65
2019-03-11T18:01:40.737Z,11.30
2019-03-11T18:04:10.762Z,10.75
2019-03-11T18:06:40.497Z,7.78
2019-03-11T18:09:10.224Z,10.03
2019-03-11T18:11:40.310Z,13.40
2019-03-11T18:14:10.090Z,15.23
2019-03-11T18:16:39.633Z,12.83
2019-03-11T18:19:10.479Z,11.40
2019-03-11T18:21:41.643Z,30.43
2019-03-11T18:24:11.916Z,13.68
2019-03-11T18:26:42.023Z,16.62
2019-03-11T18:29:22.737Z,10.93
2019-03-11T18:32:01.780Z,14.05
2019-03-11T18:34:29.835Z,15.03
2019-03-11T18:36:59.674Z,17.77
2019-03-11T18:39:29.611Z,18.52
2019-03-11T18:42:00.470Z,20.08
2019-03-11T18:44:30.106Z,22.50
2019-03-11T18:47:00.628Z,15.32
2019-03-11T18:49:31.185Z,18.73
2019-03-11T18:52:00.833Z,21.93
2019-03-11T18:54:30.632Z,11.70
2019-03-11T18:57:00.283Z,12.33
2019-03-11T18:59:29.906Z,12.70
2019-03-11T19:01:59.860Z,13.65
2019-03-11T19:04:31.916Z,18.17
2019-03-11T19:07:01.585Z,20.37
2019-03-11T19:09:31.391Z,19.48
2019-03-11T19:12:01.100Z,16.55
2019-03-11T19:14:30.741Z,23.52
2019-03-11T19:17:11.438Z,18.97
2019-03-11T19:20:00.797Z,16.35
2019-03-11T19:22:35.934Z,10.38
2019-03-11T19:25:06.995Z,8.00
2019-03-11T19:27:36.606Z,7.60
2019-03-11T19:30:15.284Z,6.17
2019-03-11T19:32:45.086Z,5.80
2019-03-11T19:35:14.898Z,8.15
2019-03-11T19:37:44.751Z,9.80
2019-03-11T19:40:22.083Z,5.15
2019-03-11T19:42:51.805Z,8.78
2019-03-11T19:45:21.545Z,11.15
2019-03-11T19:47:51.457Z,9.08
2019-03-11T19:50:21.516Z,6.72
2019-03-11T19:52:58.364Z,7.30
2019-03-11T19:55:22.612Z,8.10
2019-03-11T19:57:52.431Z,12.23
2019-03-11T20:00:23.475Z,13.50
2019-03-11T20:02:53.321Z,15.80
2019-03-11T20:05:25.732Z,18.30
2019-03-11T20:07:55.577Z,16.65
2019-03-11T20:10:25.403Z,14.65
2019-03-11T20:12:55.377Z,19.82
2019-03-11T20:15:25.112Z,8.90
2019-03-11T20:17:56.404Z,9.68
2019-03-11T20:20:26.099Z,9.70
2019-03-11T20:22:55.695Z,9.20
2019-03-11T20:25:33.504Z,6.97
2019-03-11T20:28:03.318Z,6.05
2019-03-11T20:30:33.321Z,4.85
2019-03-11T20:33:04.145Z,5.50
2019-03-11T20:35:34.173Z,6.47
2019-03-11T20:38:04.227Z,4.92
2019-03-11T20:40:33.865Z,5.72
2019-03-11T20:43:03.419Z,8.67
2019-03-11T20:45:33.110Z,6.03
2019-03-11T20:48:03.971Z,5.62
2019-03-11T20:50:41.830Z,8.35
2019-03-11T20:53:05.810Z,6.60
2019-03-11T20:55:36.798Z,4.55
2019-03-11T20:58:06.518Z,4.83
2019-03-11T21:00:36.443Z,4.75
2019-03-11T21:03:08.641Z,5.95
2019-03-11T21:05:50.563Z,9.50
2019-03-11T21:08:20.351Z,5.25
2019-03-11T21:10:49.865Z,6.10
2019-03-11T21:13:19.527Z,7.53
2019-03-11T21:15:49.168Z,5.07
2019-03-11T21:18:18.991Z,5.90
2019-03-11T21:20:48.693Z,5.00
2019-03-11T21:23:19.179Z,5.65
2019-03-11T21:25:48.747Z,5.92
2019-03-11T21:28:18.810Z,7.43
2019-03-11T21:30:50.406Z,8.95
2019-03-11T21:33:20.161Z,6.12
2019-03-11T21:35:50.085Z,7.08
2019-03-11T21:38:19.956Z,4.92
2019-03-11T21:40:49.675Z,6.92
2019-03-11T21:43:19.482Z,7.60
2019-03-11T21:45:49.271Z,6.42
2019-03-11T21:48:19.004Z,7.85
2019-03-11T21:50:48.568Z,6.47
2019-03-11T21:53:18.233Z,6.70
2019-03-11T21:55:47.861Z,8.40
2019-03-11T21:58:17.534Z,7.07
2019-03-11T22:00:47.319Z,8.18
2019-03-11T22:03:17.056Z,9.18
2019-03-11T22:05:46.876Z,9.93
2019-03-11T22:08:16.626Z,11.88
2019-03-11T22:10:46.344Z,12.10
2019-03-11T22:13:15.871Z,10.17
2019-03-11T22:15:45.495Z,17.07
2019-03-11T22:18:15.120Z,13.23
2019-03-11T22:20:44.746Z,14.85
2019-03-11T22:23:14.383Z,14.60
2019-03-11T22:25:43.975Z,17.77
2019-03-11T22:28:13.539Z,16.30
2019-03-11T22:30:43.259Z,11.63
2019-03-11T22:33:13.100Z,9.80
2019-03-11T22:35:42.824Z,13.93
2019-03-11T22:38:12.482Z,10.47
2019-03-11T22:40:42.285Z,9.15
2019-03-11T22:43:11.914Z,10.20
2019-03-11T22:45:42.040Z,9.85
2019-03-11T22:48:11.805Z,10.80
2019-03-11T22:50:41.721Z,7.97
2019-03-11T22:53:11.350Z,10.80
2019-03-11T22:55:42.672Z,9.35
2019-03-11T22:58:12.341Z,6.72
2019-03-11T23:00:46.798Z,15.90
2019-03-11T23:03:17.936Z,7.45
2019-03-11T23:05:57.596Z,8.63
2019-03-11T23:08:18.923Z,8.48
2019-03-11T23:10:48.767Z,11.48
2019-03-11T23:13:18.293Z,9.05
2019-03-11T23:15:47.924Z,8.73
2019-03-11T23:18:17.651Z,12.03
2019-03-11T23:20:47.275Z,14.47
2019-03-11T23:23:17.436Z,14.95
2019-03-11T23:25:47.062Z,12.78
2019-03-11T23:28:16.569Z,10.97
2019-03-11T23:30:46.942Z,13.15
2019-03-11T23:33:16.643Z,15.48
2019-03-11T23:35:46.172Z,11.90
2019-03-11T23:38:15.851Z,13.83
2019-03-11T23:40:45.630Z,20.97
2019-03-11T23:43:15.158Z,20.37
2019-03-11T23:45:44.883Z,17.10
2019-03-11T23:48:14.613Z,17.37
2019-03-11T23:50:44.474Z,17.00
2019-03-11T23:53:14.077Z,18.48
2019-03-11T23:55:43.593Z,16.40
2019-03-11T23:58:14.252Z,19.67
